Time;durP1;ratioP1;P1;durP2;ratioP2;P2;SDS_P1;SDS_P2;PMS_P1;PMS_P2;Temp;Humidity;BMP_temperature;BMP_pressure;BME280_temperature;BME280_humidity;BME280_pressure;Samples;Min_cycle;Max_cycle;Signal;HPM_P1;HPM_P2
2022/02/02 00:00:18;;;;;;;;;;;8.90;99.90;;;;;;4917733;29;19907;-89
2022/02/02 00:02:50;;;;;;;;;;;9.00;99.90;;;;;;4934659;29;19906;-89
2022/02/02 00:05:46;;;;;;;;;;;8.90;99.90;;;;;;4934549;29;20478;-86
2022/02/02 00:23:20;;;;;;;;;;;8.80;99.90;;;;;;4934506;29;19907;-88
2022/02/02 00:25:52;;;;;;;;;;;8.80;99.90;;;;;;4934068;29;19907;-89
2022/02/02 00:28:25;;;;;;;;;;;8.80;99.90;;;;;;4934287;29;19913;-89
2022/02/02 00:30:51;;;;;;;;;;;8.80;99.90;;;;;;4934278;29;19915;-88
2022/02/02 00:33:26;;;;;;;;;;;8.70;99.90;;;;;;4934121;29;19907;-88
2022/02/02 00:36:06;;;;;;;;;;;8.70;99.90;;;;;;4934360;29;19907;-89
2022/02/02 00:38:32;;;;;;;;;;;8.70;99.90;;;;;;4917299;29;19906;-89
2022/02/02 00:40:57;;;;;;;;;;;8.70;99.90;;;;;;4934084;29;20458;-88
2022/02/02 00:43:23;;;;;;;;;;;8.70;99.90;;;;;;4934168;29;19914;-88
2022/02/02 00:45:49;;;;;;;;;;;8.70;99.90;;;;;;4933873;29;19910;-89
2022/02/02 00:48:17;;;;;;;;;;;8.70;99.90;;;;;;4934044;29;19926;-88
2022/02/02 00:50:43;;;;;;;;;;;8.70;99.90;;;;;;4933883;29;19922;-89
2022/02/02 00:53:10;;;;;;;;;;;8.60;99.90;;;;;;4932771;29;19911;-88
2022/02/02 00:55:36;;;;;;;;;;;8.60;99.90;;;;;;4933924;29;19911;-88
2022/02/02 00:58:03;;;;;;;;;;;8.70;99.90;;;;;;4933907;29;20386;-88
2022/02/02 01:00:29;;;;;;;;;;;8.70;99.90;;;;;;4916572;29;19926;-88
2022/02/02 01:02:55;;;;;;;;;;;8.70;99.90;;;;;;4933859;29;19914;-88
2022/02/02 01:05:20;;;;;;;;;;;8.70;99.90;;;;;;4933768;29;19914;-89
2022/02/02 01:21:31;;;;;;;;;;;8.70;99.90;;;;;;4933803;29;19911;-91
2022/02/02 01:29:25;;;;;;;;;;;8.50;99.90;;;;;;4933451;29;19954;-87
2022/02/02 01:31:51;;;;;;;;;;;8.60;99.90;;;;;;4933585;29;19919;-87
2022/02/02 01:34:17;;;;;;;;;;;8.50;99.90;;;;;;4933481;29;19911;-87
2022/02/02 01:36:42;;;;;;;;;;;8.60;99.90;;;;;;4933605;29;20336;-89
2022/02/02 01:39:12;;;;;;;;;;;8.60;99.90;;;;;;4933582;29;19906;-87
2022/02/02 01:41:41;;;;;;;;;;;8.60;99.90;;;;;;4933616;29;19913;-87
2022/02/02 01:44:16;;;;;;;;;;;8.60;99.90;;;;;;4933544;29;19907;-90
2022/02/02 01:46:42;;;;;;;;;;;8.50;99.90;;;;;;4916310;29;19907;-87
2022/02/02 01:52:11;;;;;;;;;;;8.60;99.90;;;;;;4933386;29;19957;-87
2022/02/02 01:54:53;;;;;;;;;;;8.60;99.90;;;;;;4915844;29;19907;-87
2022/02/02 01:59:47;;;;;;;;;;;8.50;99.90;;;;;;4933670;29;19989;-87
2022/02/02 02:02:13;;;;;;;;;;;8.60;99.90;;;;;;4935121;29;19906;-87
2022/02/02 02:04:39;;;;;;;;;;;8.70;99.90;;;;;;4919894;29;19934;-86
2022/02/02 02:07:04;;;;;;;;;;;8.60;99.90;;;;;;4919806;29;19918;-87
2022/02/02 02:09:30;;;;;;;;;;;8.60;99.90;;;;;;4936663;29;19907;-87
2022/02/02 02:12:00;;;;;;;;;;;8.60;99.90;;;;;;4936665;29;19921;-88
2022/02/02 02:16:57;;;;;;;;;;;8.60;99.90;;;;;;4936962;29;19907;-87
2022/02/02 02:19:24;;;;;;;;;;;8.60;99.90;;;;;;4936643;29;19913;-87
2022/02/02 02:21:51;;;;;;;;;;;8.50;99.90;;;;;;4936891;29;19949;-90
2022/02/02 02:24:16;;;;;;;;;;;8.50;99.90;;;;;;4936308;29;20502;-87
2022/02/02 02:26:42;;;;;;;;;;;8.50;99.90;;;;;;4936889;29;19913;-87
2022/02/02 02:32:03;;;;;;;;;;;8.50;99.90;;;;;;4936369;29;19950;-87
2022/02/02 02:34:57;;;;;;;;;;;8.40;99.90;;;;;;4920109;29;19913;-87
2022/02/02 02:56:11;;;;;;;;;;;8.40;99.90;;;;;;4936505;29;19954;-86
2022/02/02 02:58:48;;;;;;;;;;;8.40;99.90;;;;;;4919715;29;19907;-88
2022/02/02 03:01:35;;;;;;;;;;;8.40;99.90;;;;;;4935007;29;19907;-88
2022/02/02 03:31:46;;;;;;;;;;;8.50;99.90;;;;;;4935431;29;20443;-88
2022/02/02 03:58:42;;;;;;;;;;;8.40;99.90;;;;;;4935481;29;19997;-88
2022/02/02 04:06:22;;;;;;;;;;;8.40;99.90;;;;;;4935559;29;19910;-93
2022/02/02 04:08:48;;;;;;;;;;;8.40;99.90;;;;;;4918769;29;20269;-88
2022/02/02 04:11:23;;;;;;;;;;;8.50;99.90;;;;;;4917967;29;19921;-88
2022/02/02 05:06:44;;;;;;;;;;;8.50;99.90;;;;;;4944776;29;19913;-89
2022/02/02 05:17:17;;;;;;;;;;;8.40;99.90;;;;;;4941302;29;19910;-87
2022/02/02 05:44:04;;;;;;;;;;;8.40;99.90;;;;;;4938168;29;19906;-90
2022/02/02 05:51:49;;;;;;;;;;;8.30;99.90;;;;;;4937910;29;19922;-89
2022/02/02 05:54:15;;;;;;;;;;;8.30;99.90;;;;;;4947281;29;19902;-89
2022/02/02 05:56:51;;;;;;;;;;;8.30;99.90;;;;;;4921110;29;19910;-88
2022/02/02 05:59:21;;;;;;;;;;;8.40;99.90;;;;;;4937084;29;19906;-88
2022/02/02 06:02:01;;;;;;;;;;;8.40;99.90;;;;;;4937041;29;19950;-88
2022/02/02 06:04:27;;;;;;;;;;;8.30;99.90;;;;;;4936521;29;19911;-88
2022/02/02 06:06:54;;;;;;;;;;;8.30;99.90;;;;;;4937803;29;19970;-89
2022/02/02 06:09:22;;;;;;;;;;;8.30;99.90;;;;;;4936613;29;19907;-88
2022/02/02 06:11:49;;;;;;;;;;;8.20;99.90;;;;;;4919422;29;19915;-90
2022/02/02 06:14:17;;;;;;;;;;;8.20;99.90;;;;;;4918976;29;19997;-88
2022/02/02 06:16:43;;;;;;;;;;;8.20;99.90;;;;;;4936586;29;19906;-88
2022/02/02 06:19:09;;;;;;;;;;;8.10;99.90;;;;;;4936783;29;19914;-88
2022/02/02 06:21:35;;;;;;;;;;;8.20;99.90;;;;;;4936559;29;20392;-88
2022/02/02 06:24:11;;;;;;;;;;;8.20;99.90;;;;;;4936634;29;19906;-89
2022/02/02 06:26:40;;;;;;;;;;;8.20;99.90;;;;;;4936596;29;19922;-89
2022/02/02 06:29:07;;;;;;;;;;;8.20;99.90;;;;;;4936601;29;19907;-88
2022/02/02 06:31:36;;;;;;;;;;;8.10;99.90;;;;;;4919068;29;19919;-90
2022/02/02 06:34:04;;;;;;;;;;;8.20;99.90;;;;;;4919106;29;20046;-88
2022/02/02 06:36:31;;;;;;;;;;;8.20;99.90;;;;;;4919349;29;19911;-88
2022/02/02 06:38:57;;;;;;;;;;;8.20;99.90;;;;;;4936236;29;19908;-88
2022/02/02 06:41:27;;;;;;;;;;;8.20;99.90;;;;;;4936680;29;20387;-89
2022/02/02 06:43:56;;;;;;;;;;;8.20;99.90;;;;;;4936303;29;20418;-88
2022/02/02 06:46:25;;;;;;;;;;;8.20;99.90;;;;;;4936606;29;19979;-88
2022/02/02 06:48:50;;;;;;;;;;;8.20;99.90;;;;;;4937121;29;19906;-88
2022/02/02 06:51:23;;;;;;;;;;;8.20;99.90;;;;;;4935955;29;20013;-88
2022/02/02 06:53:57;;;;;;;;;;;8.20;99.90;;;;;;4935784;29;19923;-88
2022/02/02 06:56:43;;;;;;;;;;;8.20;99.90;;;;;;4918724;29;19973;-87
2022/02/02 07:04:38;;;;;;;;;;;8.20;99.90;;;;;;4935972;29;19913;-88
2022/02/02 07:07:22;;;;;;;;;;;8.20;99.90;;;;;;4918676;29;19907;-89
2022/02/02 07:10:15;;;;;;;;;;;8.20;99.90;;;;;;4935865;29;19906;-89
2022/02/02 07:13:08;;;;;;;;;;;8.30;99.90;;;;;;4935286;29;20076;-88
2022/02/02 07:20:48;;;;;;;;;;;8.20;99.90;;;;;;4935954;29;19929;-89
2022/02/02 07:26:03;;;;;;;;;;;8.20;99.90;;;;;;4935383;29;19910;-89
2022/02/02 07:28:35;;;;;;;;;;;8.20;99.90;;;;;;4935601;29;19906;-88
2022/02/02 07:31:24;;;;;;;;;;;8.30;99.90;;;;;;4935375;29;20287;-89
2022/02/02 07:33:56;;;;;;;;;;;8.20;99.90;;;;;;4934769;29;19907;-89
2022/02/02 07:36:32;;;;;;;;;;;8.20;99.90;;;;;;4934882;29;19906;-89
2022/02/02 07:38:58;;;;;;;;;;;8.20;99.90;;;;;;4917766;29;20058;-89
2022/02/02 07:41:31;;;;;;;;;;;8.20;99.90;;;;;;4919209;29;20081;-89
2022/02/02 07:44:04;;;;;;;;;;;8.30;99.90;;;;;;4918360;29;19906;-89
2022/02/02 07:46:30;;;;;;;;;;;8.40;99.90;;;;;;4935725;29;19911;-89
2022/02/02 07:48:56;;;;;;;;;;;8.40;99.90;;;;;;4935567;29;19970;-89
2022/02/02 07:51:25;;;;;;;;;;;8.40;99.90;;;;;;4935598;29;19921;-89
2022/02/02 07:53:52;;;;;;;;;;;8.40;99.90;;;;;;4917735;29;19907;-89
2022/02/02 07:56:20;;;;;;;;;;;8.40;99.90;;;;;;4934728;29;19913;-89
2022/02/02 07:58:49;;;;;;;;;;;8.40;99.90;;;;;;4934498;29;19979;-89
2022/02/02 08:01:16;;;;;;;;;;;8.30;99.90;;;;;;4934901;29;20451;-89
2022/02/02 08:03:51;;;;;;;;;;;8.40;99.90;;;;;;4917661;29;19954;-89
2022/02/02 08:06:20;;;;;;;;;;;8.40;99.90;;;;;;4934720;29;19918;-89
2022/02/02 08:08:49;;;;;;;;;;;8.40;99.90;;;;;;4934815;29;20427;-89
2022/02/02 08:11:15;;;;;;;;;;;8.50;99.90;;;;;;4935661;29;19914;-89
2022/02/02 08:13:44;;;;;;;;;;;8.40;99.90;;;;;;4917335;29;19966;-89
2022/02/02 08:16:13;;;;;;;;;;;8.40;99.90;;;;;;4933423;29;19911;-89
2022/02/02 08:18:42;;;;;;;;;;;8.40;99.90;;;;;;4935866;29;19911;-89
2022/02/02 08:21:07;;;;;;;;;;;8.40;99.90;;;;;;4917501;29;19967;-89
2022/02/02 08:23:34;;;;;;;;;;;8.50;99.90;;;;;;4917916;29;19910;-88
2022/02/02 08:26:01;;;;;;;;;;;8.50;99.90;;;;;;4935157;29;19907;-89
2022/02/02 08:28:26;;;;;;;;;;;8.50;99.90;;;;;;4917490;29;20395;-89
2022/02/02 08:30:55;;;;;;;;;;;8.50;99.90;;;;;;4934605;29;19915;-90
2022/02/02 08:33:27;;;;;;;;;;;8.40;99.90;;;;;;4934623;29;19906;-89
2022/02/02 08:35:55;;;;;;;;;;;8.40;99.90;;;;;;4917655;29;20276;-89
2022/02/02 08:40:57;;;;;;;;;;;8.40;99.90;;;;;;4936123;29;19942;-90
2022/02/02 08:43:29;;;;;;;;;;;8.50;99.90;;;;;;4936684;29;20379;-89
2022/02/02 08:46:01;;;;;;;;;;;8.40;99.90;;;;;;4934581;29;19962;-89
2022/02/02 08:48:27;;;;;;;;;;;8.30;99.90;;;;;;4917825;29;19907;-89
2022/02/02 08:51:01;;;;;;;;;;;8.40;99.90;;;;;;4934704;29;19914;-89
2022/02/02 09:00:58;;;;;;;;;;;8.70;99.90;;;;;;4934627;29;19945;-89
2022/02/02 09:06:10;;;;;;;;;;;8.60;99.90;;;;;;4934472;29;20430;-89
2022/02/02 09:08:35;;;;;;;;;;;8.60;99.90;;;;;;4916747;29;19910;-89
2022/02/02 09:24:29;;;;;;;;;;;8.80;99.90;;;;;;4934721;29;20328;-89
2022/02/02 09:32:50;;;;;;;;;;;8.70;99.90;;;;;;4925303;29;19914;-89
2022/02/02 09:35:15;;;;;;;;;;;8.80;99.90;;;;;;4934152;29;19906;-90
2022/02/02 09:37:41;;;;;;;;;;;8.90;99.90;;;;;;4917933;29;20284;-90
2022/02/02 09:40:38;;;;;;;;;;;9.00;99.90;;;;;;4933273;29;19922;-90
2022/02/02 09:42:56;;;;;;;;;;;8.90;99.90;;;;;;4932684;29;19907;-91
2022/02/02 09:45:24;;;;;;;;;;;8.80;99.90;;;;;;4935050;29;20376;-90
2022/02/02 09:47:57;;;;;;;;;;;8.90;99.90;;;;;;4919726;29;20364;-90
2022/02/02 09:50:33;;;;;;;;;;;9.00;99.90;;;;;;4937923;29;20197;-90
2022/02/02 09:53:01;;;;;;;;;;;9.10;99.90;;;;;;4938239;29;19911;-90
2022/02/02 09:58:57;;;;;;;;;;;9.00;99.90;;;;;;4915979;29;19907;-90
2022/02/02 10:15:20;;;;;;;;;;;9.10;99.90;;;;;;4938426;29;19907;-90
2022/02/02 10:17:45;;;;;;;;;;;9.10;99.90;;;;;;4938181;29;20319;-90
2022/02/02 10:20:18;;;;;;;;;;;9.20;99.90;;;;;;4935704;29;19938;-91
2022/02/02 10:22:46;;;;;;;;;;;9.30;99.90;;;;;;4940600;29;19938;-90
2022/02/02 10:25:21;;;;;;;;;;;9.40;99.90;;;;;;4941147;29;20191;-91
2022/02/02 10:27:49;;;;;;;;;;;9.40;99.90;;;;;;4923509;29;19907;-90
2022/02/02 10:30:15;;;;;;;;;;;9.50;99.90;;;;;;4922556;29;19934;-91
2022/02/02 10:32:42;;;;;;;;;;;9.50;99.90;;;;;;4938576;29;19917;-90
2022/02/02 10:35:09;;;;;;;;;;;9.50;99.90;;;;;;4942194;29;19907;-90
2022/02/02 10:37:36;;;;;;;;;;;9.40;99.90;;;;;;4940975;29;19970;-90
2022/02/02 10:40:03;;;;;;;;;;;9.40;99.90;;;;;;4937248;29;19907;-90
2022/02/02 10:42:33;;;;;;;;;;;9.40;99.90;;;;;;4936946;29;19914;-90
2022/02/02 10:45:14;;;;;;;;;;;9.50;99.90;;;;;;4937186;29;19989;-91
2022/02/02 10:47:41;;;;;;;;;;;9.60;99.90;;;;;;4937767;29;19926;-90
2022/02/02 10:50:21;;;;;;;;;;;9.50;99.90;;;;;;4937302;29;19998;-91
2022/02/02 10:59:03;;;;;;;;;;;9.50;99.90;;;;;;4937340;29;19910;-90
2022/02/02 11:06:38;;;;;;;;;;;9.80;99.90;;;;;;4936970;29;20275;-90
2022/02/02 11:09:04;;;;;;;;;;;9.70;99.90;;;;;;4919379;29;19907;-91
2022/02/02 11:11:30;;;;;;;;;;;9.70;99.90;;;;;;4919281;29;19914;-91
2022/02/02 11:14:04;;;;;;;;;;;9.70;99.90;;;;;;4919347;29;20432;-90
2022/02/02 11:16:31;;;;;;;;;;;9.70;99.90;;;;;;4919262;29;19979;-91
2022/02/02 11:18:57;;;;;;;;;;;9.80;99.90;;;;;;4936341;29;19906;-91
2022/02/02 11:21:30;;;;;;;;;;;9.90;99.90;;;;;;4938117;29;19907;-91
2022/02/02 11:23:57;;;;;;;;;;;9.90;99.90;;;;;;4938104;29;19911;-91
2022/02/02 11:26:42;;;;;;;;;;;9.90;99.90;;;;;;4920327;29;20316;-90
2022/02/02 11:29:08;;;;;;;;;;;9.90;99.90;;;;;;4918856;29;19942;-91
2022/02/02 11:31:33;;;;;;;;;;;10.10;99.90;;;;;;4936724;29;20339;-91
2022/02/02 11:34:00;;;;;;;;;;;10.10;99.90;;;;;;4920777;29;19989;-90
2022/02/02 11:36:35;;;;;;;;;;;10.00;99.90;;;;;;4918678;29;19999;-91
2022/02/02 11:39:04;;;;;;;;;;;10.20;99.90;;;;;;4935288;29;19906;-91
2022/02/02 11:49:53;;;;;;;;;;;9.90;99.90;;;;;;4934914;29;20308;-90
2022/02/02 11:52:37;;;;;;;;;;;9.90;99.90;;;;;;4917901;29;20368;-90
2022/02/02 11:55:07;;;;;;;;;;;10.00;99.90;;;;;;4917704;29;19907;-90
2022/02/02 11:57:52;;;;;;;;;;;9.80;99.90;;;;;;4918326;29;20522;-90
2022/02/02 12:08:15;;;;;;;;;;;9.70;99.90;;;;;;4935066;29;20372;-90
2022/02/02 12:57:12;;;;;;;;;;;10.40;99.90;;;;;;4936931;29;19973;-92
2022/02/02 13:02:13;;;;;;;;;;;10.50;99.90;;;;;;4934580;29;19906;-91
2022/02/02 13:04:39;;;;;;;;;;;10.70;99.90;;;;;;4936776;29;19911;-91
2022/02/02 13:07:08;;;;;;;;;;;10.70;99.90;;;;;;4917504;29;20252;-91
2022/02/02 13:09:34;;;;;;;;;;;10.70;99.90;;;;;;4917208;29;19913;-91
2022/02/02 13:12:16;;;;;;;;;;;10.40;99.90;;;;;;4935032;29;19923;-90
2022/02/02 13:15:00;;;;;;;;;;;10.30;99.90;;;;;;4916734;29;19934;-91
2022/02/02 13:17:25;;;;;;;;;;;10.40;99.90;;;;;;4918797;29;19918;-91
2022/02/02 13:20:12;;;;;;;;;;;10.40;99.90;;;;;;4934576;29;20275;-91
2022/02/02 13:23:01;;;;;;;;;;;10.30;99.90;;;;;;4937768;29;19966;-91
2022/02/02 13:25:31;;;;;;;;;;;10.40;99.90;;;;;;4933949;29;19911;-90
2022/02/02 13:27:59;;;;;;;;;;;10.50;99.90;;;;;;4936332;29;19911;-91
2022/02/02 13:30:41;;;;;;;;;;;10.50;99.90;;;;;;4933771;29;19914;-91
2022/02/02 13:33:18;;;;;;;;;;;10.60;99.90;;;;;;4916620;29;19907;-91
2022/02/02 13:35:58;;;;;;;;;;;10.60;99.90;;;;;;4917538;29;19898;-91
2022/02/02 13:38:43;;;;;;;;;;;10.80;99.90;;;;;;4917788;29;20352;-91
2022/02/02 13:44:42;;;;;;;;;;;11.00;99.90;;;;;;4935927;29;20306;-90
2022/02/02 13:47:21;;;;;;;;;;;11.20;99.90;;;;;;4931304;29;19907;-91
2022/02/02 13:50:36;;;;;;;;;;;11.10;99.90;;;;;;4932771;29;20257;-91
2022/02/02 13:52:54;;;;;;;;;;;10.90;99.90;;;;;;4932049;29;19926;-91
2022/02/02 13:55:30;;;;;;;;;;;10.60;99.90;;;;;;4916767;29;20372;-91
2022/02/02 14:01:15;;;;;;;;;;;10.50;99.90;;;;;;4922074;29;19906;-91
2022/02/02 14:06:52;;;;;;;;;;;10.60;99.90;;;;;;4940506;29;20166;-91
2022/02/02 14:33:20;;;;;;;;;;;10.90;99.90;;;;;;4937115;29;20370;-91
2022/02/02 14:35:47;;;;;;;;;;;10.60;99.90;;;;;;4937841;29;19927;-91
2022/02/02 14:38:14;;;;;;;;;;;10.50;99.90;;;;;;4920527;29;20171;-91
2022/02/02 14:40:57;;;;;;;;;;;10.30;99.90;;;;;;4918979;29;19917;-91
2022/02/02 14:43:33;;;;;;;;;;;10.30;99.90;;;;;;4937589;29;19907;-90
2022/02/02 14:46:01;;;;;;;;;;;10.30;99.90;;;;;;4919391;29;19907;-91
2022/02/02 14:48:39;;;;;;;;;;;10.10;99.90;;;;;;4936295;29;20407;-91
2022/02/02 15:27:33;;;;;;;;;;;9.80;99.90;;;;;;4936068;29;19907;-91
2022/02/02 15:30:12;;;;;;;;;;;9.90;99.90;;;;;;4934261;29;19907;-91
2022/02/02 15:32:41;;;;;;;;;;;9.90;99.90;;;;;;4918244;29;20348;-91
2022/02/02 15:35:07;;;;;;;;;;;10.00;99.90;;;;;;4918233;29;19907;-91
2022/02/02 15:37:40;;;;;;;;;;;10.10;99.90;;;;;;4935541;29;20261;-91
2022/02/02 15:40:11;;;;;;;;;;;10.00;99.90;;;;;;4918936;29;19913;-91
2022/02/02 15:42:53;;;;;;;;;;;10.00;99.90;;;;;;4937283;29;19914;-91
2022/02/02 15:59:19;;;;;;;;;;;9.40;99.90;;;;;;4935923;29;19957;-91
2022/02/02 16:04:21;;;;;;;;;;;9.30;99.90;;;;;;4936547;29;19917;-92
2022/02/02 16:06:48;;;;;;;;;;;9.30;99.90;;;;;;4918561;29;19907;-91
2022/02/02 16:09:25;;;;;;;;;;;9.30;99.90;;;;;;4935503;29;19930;-91
2022/02/02 16:12:06;;;;;;;;;;;9.40;99.90;;;;;;4935560;29;19921;-91
2022/02/02 16:14:38;;;;;;;;;;;9.50;99.90;;;;;;4921255;29;19922;-91
2022/02/02 16:17:16;;;;;;;;;;;9.60;99.90;;;;;;4936141;29;19907;-91
2022/02/02 16:38:29;;;;;;;;;;;9.40;99.90;;;;;;4935069;29;19907;-91
2022/02/02 16:40:57;;;;;;;;;;;9.40;99.90;;;;;;4918260;29;19970;-91
2022/02/02 16:43:23;;;;;;;;;;;9.40;99.90;;;;;;4936683;29;19910;-90
2022/02/02 16:45:52;;;;;;;;;;;9.30;99.90;;;;;;4923417;29;19903;-89
2022/02/02 16:48:18;;;;;;;;;;;9.20;99.90;;;;;;4924627;29;19911;-88
2022/02/02 16:50:47;;;;;;;;;;;9.10;99.90;;;;;;4941114;29;19915;-89
2022/02/02 16:53:34;;;;;;;;;;;9.20;99.90;;;;;;4941130;29;19906;-96
2022/02/02 18:20:55;;;;;;;;;;;8.70;99.90;;;;;;4905963;29;19914;-92
2022/02/02 18:23:29;;;;;;;;;;;8.70;99.90;;;;;;4905375;29;20110;-91
2022/02/02 18:26:12;;;;;;;;;;;8.70;99.90;;;;;;4902439;29;19939;-93
2022/02/02 18:54:47;;;;;;;;;;;8.50;99.90;;;;;;4910128;29;19949;-90
2022/02/02 20:11:30;;;;;;;;;;;8.60;99.90;;;;;;4917743;29;20269;-90
2022/02/02 20:13:55;;;;;;;;;;;8.60;99.90;;;;;;4918300;29;19907;-90
2022/02/02 20:16:21;;;;;;;;;;;8.50;99.90;;;;;;4915929;29;19914;-90
2022/02/02 20:18:49;;;;;;;;;;;8.50;99.90;;;;;;4919616;29;19957;-89
2022/02/02 20:21:27;;;;;;;;;;;;;;;;;;;;;
2022/02/02 20:23:53;;;;;;;;;;;8.60;99.90;;;;;;4915991;29;19990;-90
2022/02/02 20:26:22;;;;;;;;;;;8.70;99.90;;;;;;4916966;29;19949;-91
2022/02/02 20:28:48;;;;;;;;;;;8.60;99.90;;;;;;4918597;29;19907;-89
2022/02/02 20:31:15;;;;;;;;;;;8.60;99.90;;;;;;4920072;29;20329;-90
2022/02/02 20:33:41;;;;;;;;;;;8.70;99.90;;;;;;4918399;29;20372;-90
2022/02/02 20:36:07;;;;;;;;;;;8.60;99.90;;;;;;4918163;29;19910;-90
2022/02/02 20:38:33;;;;;;;;;;;8.60;99.90;;;;;;4925948;29;19903;-90
2022/02/02 20:40:58;;;;;;;;;;;8.60;99.90;;;;;;4923862;29;20127;-89
2022/02/02 21:07:25;;;;;;;;;;;8.90;99.90;;;;;;4917553;29;19922;-89
2022/02/02 21:09:59;;;;;;;;;;;9.00;99.90;;;;;;4916121;29;19907;-88
2022/02/02 21:15:29;;;;;;;;;;;8.90;99.90;;;;;;4931295;29;19918;-88
2022/02/02 21:17:58;;;;;;;;;;;9.00;99.90;;;;;;4931396;29;19970;-90
2022/02/02 21:20:31;;;;;;;;;;;8.90;99.90;;;;;;4930926;29;19907;-89
2022/02/02 21:23:02;;;;;;;;;;;9.00;99.90;;;;;;4927479;29;19970;-90
2022/02/02 21:27:57;;;;;;;;;;;9.10;99.90;;;;;;4931313;29;19970;-90
2022/02/02 21:30:25;;;;;;;;;;;9.10;99.90;;;;;;4929844;29;20364;-89
2022/02/02 21:32:51;;;;;;;;;;;9.10;99.90;;;;;;4930851;29;20194;-89
2022/02/02 21:35:18;;;;;;;;;;;9.10;99.90;;;;;;4929831;29;19906;-91
2022/02/02 21:37:46;;;;;;;;;;;9.20;99.90;;;;;;4925265;29;20210;-91
2022/02/02 21:40:22;;;;;;;;;;;9.10;99.90;;;;;;4929997;29;19954;-89
2022/02/02 21:42:49;;;;;;;;;;;9.10;99.90;;;;;;4928681;29;20006;-89
2022/02/02 21:45:15;;;;;;;;;;;9.20;99.90;;;;;;4938615;29;19930;-90
2022/02/02 21:47:41;;;;;;;;;;;9.20;99.90;;;;;;4941778;29;19907;-90
2022/02/02 21:50:11;;;;;;;;;;;9.10;99.90;;;;;;4921859;29;20006;-89
2022/02/02 21:52:37;;;;;;;;;;;9.10;99.90;;;;;;4918497;29;19921;-89
2022/02/02 21:55:04;;;;;;;;;;;9.10;99.90;;;;;;4916175;29;20489;-90
2022/02/02 21:57:29;;;;;;;;;;;9.10;99.90;;;;;;4934219;29;19907;-90
2022/02/02 21:59:55;;;;;;;;;;;9.20;99.90;;;;;;4933497;29;20297;-90
2022/02/02 22:02:21;;;;;;;;;;;9.20;99.90;;;;;;4921567;29;19907;-90
2022/02/02 22:04:46;;;;;;;;;;;9.20;99.90;;;;;;4932942;29;20100;-90
2022/02/02 22:07:12;;;;;;;;;;;9.30;99.90;;;;;;4917827;29;19907;-89
2022/02/02 22:09:37;;;;;;;;;;;9.30;99.90;;;;;;4930491;29;19959;-90
2022/02/02 22:12:03;;;;;;;;;;;9.30;99.90;;;;;;4917779;29;19921;-88
2022/02/02 22:14:32;;;;;;;;;;;9.30;99.90;;;;;;4930343;29;19918;-90
2022/02/02 22:17:00;;;;;;;;;;;9.30;99.90;;;;;;4930145;29;19907;-89
2022/02/02 22:19:26;;;;;;;;;;;9.30;99.90;;;;;;4918131;29;19918;-90
2022/02/02 22:21:52;;;;;;;;;;;9.40;99.90;;;;;;4919109;29;19939;-90
2022/02/02 22:24:18;;;;;;;;;;;9.40;99.90;;;;;;4918733;29;19915;-90
2022/02/02 22:26:44;;;;;;;;;;;9.30;99.90;;;;;;4923670;29;19911;-90
2022/02/02 22:29:09;;;;;;;;;;;9.40;99.90;;;;;;4937414;29;20195;-90
2022/02/02 22:31:35;;;;;;;;;;;9.40;99.90;;;;;;4922618;29;19951;-89
2022/02/02 22:34:00;;;;;;;;;;;9.40;99.90;;;;;;4936482;29;20187;-90
2022/02/02 22:36:26;;;;;;;;;;;9.30;99.90;;;;;;4936201;29;19915;-90
2022/02/02 22:38:51;;;;;;;;;;;9.30;99.90;;;;;;4937445;29;19958;-89
2022/02/02 22:41:17;;;;;;;;;;;9.30;99.90;;;;;;4921922;29;20041;-90
2022/02/02 22:43:49;;;;;;;;;;;9.30;99.90;;;;;;4937328;29;20419;-90
2022/02/02 22:46:16;;;;;;;;;;;9.20;99.90;;;;;;4924567;29;19915;-90
2022/02/02 22:48:43;;;;;;;;;;;9.20;99.90;;;;;;4917751;29;19907;-90
2022/02/02 22:51:10;;;;;;;;;;;9.20;99.90;;;;;;4921241;29;19911;-90
2022/02/02 22:53:35;;;;;;;;;;;9.20;99.90;;;;;;4917055;29;20426;-91
2022/02/02 22:56:01;;;;;;;;;;;9.20;99.90;;;;;;4923100;29;19910;-89
2022/02/02 22:58:26;;;;;;;;;;;9.30;99.90;;;;;;4921300;29;19989;-90
2022/02/02 23:00:52;;;;;;;;;;;9.20;99.90;;;;;;4920104;29;19903;-90
2022/02/02 23:03:21;;;;;;;;;;;9.10;99.90;;;;;;4918509;29;19911;-90
2022/02/02 23:05:52;;;;;;;;;;;9.10;99.90;;;;;;4920417;29;19903;-90
2022/02/02 23:08:20;;;;;;;;;;;9.00;99.90;;;;;;4918204;29;19907;-90
2022/02/02 23:10:45;;;;;;;;;;;9.00;99.90;;;;;;4919713;29;19907;-91
2022/02/02 23:13:12;;;;;;;;;;;9.00;99.90;;;;;;4917456;29;19918;-90
2022/02/02 23:18:17;;;;;;;;;;;9.20;99.90;;;;;;4919502;29;19914;-90
2022/02/02 23:20:47;;;;;;;;;;;9.20;99.90;;;;;;4917868;29;19907;-90
2022/02/02 23:23:16;;;;;;;;;;;9.20;99.90;;;;;;4918151;29;19914;-90
2022/02/02 23:25:42;;;;;;;;;;;9.20;99.90;;;;;;4918325;29;19907;-90
2022/02/02 23:28:07;;;;;;;;;;;9.30;99.90;;;;;;4918976;29;19942;-90
2022/02/02 23:30:34;;;;;;;;;;;9.30;99.90;;;;;;4915347;29;19929;-90
2022/02/02 23:33:01;;;;;;;;;;;9.30;99.90;;;;;;4916613;29;19915;-90
2022/02/02 23:35:28;;;;;;;;;;;9.30;99.90;;;;;;4916637;29;19915;-90
2022/02/02 23:37:54;;;;;;;;;;;9.40;99.90;;;;;;4920937;29;20288;-91
2022/02/02 23:40:20;;;;;;;;;;;9.40;99.90;;;;;;4918908;29;19922;-90
2022/02/02 23:42:45;;;;;;;;;;;9.50;99.90;;;;;;4923912;29;20206;-92
2022/02/02 23:45:11;;;;;;;;;;;9.50;99.90;;;;;;4922486;29;19922;-91
2022/02/02 23:47:40;;;;;;;;;;;9.40;99.90;;;;;;4926384;29;19903;-91
2022/02/02 23:50:09;;;;;;;;;;;9.40;99.90;;;;;;4917753;29;19914;-90
2022/02/02 23:52:45;;;;;;;;;;;9.40;99.90;;;;;;4922040;29;19942;-90
2022/02/02 23:55:17;;;;;;;;;;;9.40;99.90;;;;;;4917505;29;20360;-91
